sensor_id;sensor_type;location;lat;lon;timestamp;P1;durP1;ratioP1;P2;durP2;ratioP2
69030;SDS011;56083;48.774;8.942;2023-06-01T00:02:05;13.35;;;3.95;;
69030;SDS011;56083;48.774;8.942;2023-06-01T00:04:31;17.60;;;3.78;;
69030;SDS011;56083;48.774;8.942;2023-06-01T00:06:56;9.30;;;3.10;;
69030;SDS011;56083;48.774;8.942;2023-06-01T00:09:25;8.68;;;3.20;;
69030;SDS011;56083;48.774;8.942;2023-06-01T00:11:50;9.38;;;3.45;;
69030;SDS011;56083;48.774;8.942;2023-06-01T00:14:16;9.55;;;3.92;;
69030;SDS011;56083;48.774;8.942;2023-06-01T00:16:41;16.60;;;3.80;;
69030;SDS011;56083;48.774;8.942;2023-06-01T00:19:07;10.25;;;3.70;;
69030;SDS011;56083;48.774;8.942;2023-06-01T00:21:34;10.85;;;3.83;;
69030;SDS011;56083;48.774;8.942;2023-06-01T00:24:00;9.10;;;3.35;;
69030;SDS011;56083;48.774;8.942;2023-06-01T00:26:26;7.75;;;3.30;;
69030;SDS011;56083;48.774;8.942;2023-06-01T00:28:52;11.18;;;3.20;;
69030;SDS011;56083;48.774;8.942;2023-06-01T00:31:17;7.82;;;3.40;;
69030;SDS011;56083;48.774;8.942;2023-06-01T00:33:43;6.20;;;3.10;;
69030;SDS011;56083;48.774;8.942;2023-06-01T00:36:09;6.40;;;3.28;;
69030;SDS011;56083;48.774;8.942;2023-06-01T00:38:35;5.35;;;3.22;;
69030;SDS011;56083;48.774;8.942;2023-06-01T00:41:00;8.85;;;3.72;;
69030;SDS011;56083;48.774;8.942;2023-06-01T00:43:26;7.25;;;3.70;;
69030;SDS011;56083;48.774;8.942;2023-06-01T00:45:52;8.77;;;3.63;;
69030;SDS011;56083;48.774;8.942;2023-06-01T00:48:18;9.63;;;3.53;;
69030;SDS011;56083;48.774;8.942;2023-06-01T00:50:46;12.15;;;3.70;;
69030;SDS011;56083;48.774;8.942;2023-06-01T00:53:15;7.97;;;3.47;;
69030;SDS011;56083;48.774;8.942;2023-06-01T00:55:43;12.48;;;4.10;;
69030;SDS011;56083;48.774;8.942;2023-06-01T00:58:09;8.15;;;3.35;;
69030;SDS011;56083;48.774;8.942;2023-06-01T01:00:36;11.18;;;3.85;;
69030;SDS011;56083;48.774;8.942;2023-06-01T01:03:03;7.78;;;3.30;;
69030;SDS011;56083;48.774;8.942;2023-06-01T01:05:32;10.07;;;3.70;;
69030;SDS011;56083;48.774;8.942;2023-06-01T01:10:54;8.68;;;3.78;;
69030;SDS011;56083;48.774;8.942;2023-06-01T01:13:27;10.38;;;3.78;;
69030;SDS011;56083;48.774;8.942;2023-06-01T01:16:14;8.23;;;3.47;;
69030;SDS011;56083;48.774;8.942;2023-06-01T01:27:30;10.25;;;3.95;;
69030;SDS011;56083;48.774;8.942;2023-06-01T01:30:05;10.43;;;3.80;;
69030;SDS011;56083;48.774;8.942;2023-06-01T01:32:32;10.57;;;4.07;;
69030;SDS011;56083;48.774;8.942;2023-06-01T01:35:00;7.10;;;3.63;;
69030;SDS011;56083;48.774;8.942;2023-06-01T01:37:27;9.13;;;4.15;;
69030;SDS011;56083;48.774;8.942;2023-06-01T01:39:52;7.30;;;3.42;;
69030;SDS011;56083;48.774;8.942;2023-06-01T01:42:18;6.57;;;4.03;;
69030;SDS011;56083;48.774;8.942;2023-06-01T01:44:44;12.82;;;4.22;;
69030;SDS011;56083;48.774;8.942;2023-06-01T01:47:11;10.07;;;3.80;;
69030;SDS011;56083;48.774;8.942;2023-06-01T01:50:06;10.13;;;3.97;;
69030;SDS011;56083;48.774;8.942;2023-06-01T01:52:37;13.85;;;4.88;;
69030;SDS011;56083;48.774;8.942;2023-06-01T01:55:07;14.85;;;3.95;;
69030;SDS011;56083;48.774;8.942;2023-06-01T01:57:34;11.82;;;4.15;;
69030;SDS011;56083;48.774;8.942;2023-06-01T02:00:01;10.68;;;4.13;;
69030;SDS011;56083;48.774;8.942;2023-06-01T02:02:28;11.75;;;4.43;;
69030;SDS011;56083;48.774;8.942;2023-06-01T02:04:54;14.20;;;4.13;;
69030;SDS011;56083;48.774;8.942;2023-06-01T02:07:20;9.40;;;4.28;;
69030;SDS011;56083;48.774;8.942;2023-06-01T02:09:46;10.77;;;4.43;;
69030;SDS011;56083;48.774;8.942;2023-06-01T02:12:12;12.05;;;4.32;;
69030;SDS011;56083;48.774;8.942;2023-06-01T02:14:37;9.77;;;4.10;;
69030;SDS011;56083;48.774;8.942;2023-06-01T02:17:03;11.68;;;4.55;;
69030;SDS011;56083;48.774;8.942;2023-06-01T02:19:30;13.38;;;4.50;;
69030;SDS011;56083;48.774;8.942;2023-06-01T02:21:56;10.52;;;3.83;;
69030;SDS011;56083;48.774;8.942;2023-06-01T02:24:22;11.70;;;3.95;;
69030;SDS011;56083;48.774;8.942;2023-06-01T02:26:47;9.13;;;4.03;;
69030;SDS011;56083;48.774;8.942;2023-06-01T02:29:17;10.68;;;3.92;;
69030;SDS011;56083;48.774;8.942;2023-06-01T02:31:44;14.68;;;4.18;;
69030;SDS011;56083;48.774;8.942;2023-06-01T02:34:11;10.02;;;4.55;;
69030;SDS011;56083;48.774;8.942;2023-06-01T02:36:37;9.45;;;4.15;;
69030;SDS011;56083;48.774;8.942;2023-06-01T02:39:02;10.18;;;4.03;;
69030;SDS011;56083;48.774;8.942;2023-06-01T02:41:28;15.00;;;4.25;;
69030;SDS011;56083;48.774;8.942;2023-06-01T02:43:54;13.52;;;4.03;;
69030;SDS011;56083;48.774;8.942;2023-06-01T02:46:19;12.75;;;4.13;;
69030;SDS011;56083;48.774;8.942;2023-06-01T02:48:45;8.20;;;4.35;;
69030;SDS011;56083;48.774;8.942;2023-06-01T02:51:11;14.65;;;4.70;;
69030;SDS011;56083;48.774;8.942;2023-06-01T02:53:41;11.18;;;4.30;;
69030;SDS011;56083;48.774;8.942;2023-06-01T02:56:07;14.63;;;4.15;;
69030;SDS011;56083;48.774;8.942;2023-06-01T02:58:33;9.65;;;4.28;;
69030;SDS011;56083;48.774;8.942;2023-06-01T03:00:59;13.00;;;4.40;;
69030;SDS011;56083;48.774;8.942;2023-06-01T03:03:25;9.43;;;4.38;;
69030;SDS011;56083;48.774;8.942;2023-06-01T03:05:52;13.02;;;5.18;;
69030;SDS011;56083;48.774;8.942;2023-06-01T03:08:18;14.82;;;4.35;;
69030;SDS011;56083;48.774;8.942;2023-06-01T03:10:44;12.60;;;4.20;;
69030;SDS011;56083;48.774;8.942;2023-06-01T03:13:10;11.27;;;4.60;;
69030;SDS011;56083;48.774;8.942;2023-06-01T03:15:36;13.30;;;4.72;;
69030;SDS011;56083;48.774;8.942;2023-06-01T03:18:05;11.48;;;5.15;;
69030;SDS011;56083;48.774;8.942;2023-06-01T03:20:31;11.55;;;4.90;;
69030;SDS011;56083;48.774;8.942;2023-06-01T03:22:57;9.95;;;4.47;;
69030;SDS011;56083;48.774;8.942;2023-06-01T03:25:22;11.73;;;4.45;;
69030;SDS011;56083;48.774;8.942;2023-06-01T03:27:50;9.52;;;4.47;;
69030;SDS011;56083;48.774;8.942;2023-06-01T03:30:15;10.38;;;4.50;;
69030;SDS011;56083;48.774;8.942;2023-06-01T03:32:42;10.55;;;4.57;;
69030;SDS011;56083;48.774;8.942;2023-06-01T03:35:08;10.70;;;4.47;;
69030;SDS011;56083;48.774;8.942;2023-06-01T03:37:35;11.00;;;4.63;;
69030;SDS011;56083;48.774;8.942;2023-06-01T03:40:05;9.95;;;4.47;;
69030;SDS011;56083;48.774;8.942;2023-06-01T03:42:38;16.40;;;4.80;;
69030;SDS011;56083;48.774;8.942;2023-06-01T03:45:12;11.57;;;4.93;;
69030;SDS011;56083;48.774;8.942;2023-06-01T03:47:38;8.35;;;4.40;;
69030;SDS011;56083;48.774;8.942;2023-06-01T03:50:05;12.52;;;4.80;;
69030;SDS011;56083;48.774;8.942;2023-06-01T03:52:32;14.82;;;4.60;;
69030;SDS011;56083;48.774;8.942;2023-06-01T03:54:59;10.73;;;4.38;;
69030;SDS011;56083;48.774;8.942;2023-06-01T03:57:35;10.73;;;4.10;;
69030;SDS011;56083;48.774;8.942;2023-06-01T04:00:04;18.58;;;4.82;;
69030;SDS011;56083;48.774;8.942;2023-06-01T04:02:47;11.32;;;4.47;;
69030;SDS011;56083;48.774;8.942;2023-06-01T04:05:19;13.63;;;4.60;;
69030;SDS011;56083;48.774;8.942;2023-06-01T04:07:45;10.98;;;4.35;;
69030;SDS011;56083;48.774;8.942;2023-06-01T04:10:12;10.88;;;4.40;;
69030;SDS011;56083;48.774;8.942;2023-06-01T04:12:48;8.60;;;4.47;;
69030;SDS011;56083;48.774;8.942;2023-06-01T04:15:15;12.82;;;4.78;;
69030;SDS011;56083;48.774;8.942;2023-06-01T04:17:42;9.95;;;4.28;;
69030;SDS011;56083;48.774;8.942;2023-06-01T04:20:09;13.88;;;7.15;;
69030;SDS011;56083;48.774;8.942;2023-06-01T04:22:37;12.70;;;5.88;;
69030;SDS011;56083;48.774;8.942;2023-06-01T04:25:07;9.45;;;4.25;;
69030;SDS011;56083;48.774;8.942;2023-06-01T04:27:34;14.82;;;4.53;;
69030;SDS011;56083;48.774;8.942;2023-06-01T04:30:06;10.30;;;4.68;;
69030;SDS011;56083;48.774;8.942;2023-06-01T04:32:35;11.38;;;4.40;;
69030;SDS011;56083;48.774;8.942;2023-06-01T04:35:03;11.63;;;4.35;;
69030;SDS011;56083;48.774;8.942;2023-06-01T04:37:33;12.57;;;4.60;;
69030;SDS011;56083;48.774;8.942;2023-06-01T04:40:00;16.85;;;4.65;;
69030;SDS011;56083;48.774;8.942;2023-06-01T04:42:35;13.00;;;4.57;;
69030;SDS011;56083;48.774;8.942;2023-06-01T04:45:04;6.82;;;3.83;;
69030;SDS011;56083;48.774;8.942;2023-06-01T04:47:32;11.00;;;4.45;;
69030;SDS011;56083;48.774;8.942;2023-06-01T04:50:02;17.13;;;4.90;;
69030;SDS011;56083;48.774;8.942;2023-06-01T04:52:33;13.65;;;3.90;;
69030;SDS011;56083;48.774;8.942;2023-06-01T04:54:59;11.57;;;4.70;;
69030;SDS011;56083;48.774;8.942;2023-06-01T04:57:25;9.90;;;4.15;;
69030;SDS011;56083;48.774;8.942;2023-06-01T04:59:52;11.88;;;4.60;;
69030;SDS011;56083;48.774;8.942;2023-06-01T05:02:21;12.27;;;5.20;;
69030;SDS011;56083;48.774;8.942;2023-06-01T05:04:48;9.07;;;4.70;;
69030;SDS011;56083;48.774;8.942;2023-06-01T05:07:14;12.98;;;4.43;;
69030;SDS011;56083;48.774;8.942;2023-06-01T05:09:39;10.95;;;3.97;;
69030;SDS011;56083;48.774;8.942;2023-06-01T05:12:05;11.52;;;3.80;;
69030;SDS011;56083;48.774;8.942;2023-06-01T05:14:31;9.45;;;3.90;;
69030;SDS011;56083;48.774;8.942;2023-06-01T05:16:57;9.85;;;4.13;;
69030;SDS011;56083;48.774;8.942;2023-06-01T05:19:22;12.98;;;4.00;;
69030;SDS011;56083;48.774;8.942;2023-06-01T05:21:48;9.13;;;3.88;;
69030;SDS011;56083;48.774;8.942;2023-06-01T05:24:13;8.98;;;4.05;;
69030;SDS011;56083;48.774;8.942;2023-06-01T05:26:39;9.15;;;4.03;;
69030;SDS011;56083;48.774;8.942;2023-06-01T05:29:05;13.65;;;4.93;;
69030;SDS011;56083;48.774;8.942;2023-06-01T05:31:31;14.02;;;4.60;;
69030;SDS011;56083;48.774;8.942;2023-06-01T05:33:56;9.82;;;4.93;;
69030;SDS011;56083;48.774;8.942;2023-06-01T05:36:22;12.13;;;4.88;;
69030;SDS011;56083;48.774;8.942;2023-06-01T05:38:47;8.82;;;4.47;;
69030;SDS011;56083;48.774;8.942;2023-06-01T05:41:13;10.82;;;4.90;;
69030;SDS011;56083;48.774;8.942;2023-06-01T05:43:39;11.38;;;4.40;;
69030;SDS011;56083;48.774;8.942;2023-06-01T05:46:04;14.95;;;5.07;;
69030;SDS011;56083;48.774;8.942;2023-06-01T05:48:31;18.67;;;4.03;;
69030;SDS011;56083;48.774;8.942;2023-06-01T05:50:57;10.38;;;4.68;;
69030;SDS011;56083;48.774;8.942;2023-06-01T05:53:22;10.32;;;4.47;;
69030;SDS011;56083;48.774;8.942;2023-06-01T05:55:51;13.45;;;4.72;;
69030;SDS011;56083;48.774;8.942;2023-06-01T05:58:16;13.23;;;4.60;;
69030;SDS011;56083;48.774;8.942;2023-06-01T06:00:42;15.18;;;4.43;;
69030;SDS011;56083;48.774;8.942;2023-06-01T06:03:08;10.10;;;4.32;;
69030;SDS011;56083;48.774;8.942;2023-06-01T06:05:33;10.68;;;3.90;;
69030;SDS011;56083;48.774;8.942;2023-06-01T06:07:59;12.18;;;4.10;;
69030;SDS011;56083;48.774;8.942;2023-06-01T06:10:25;10.18;;;4.05;;
69030;SDS011;56083;48.774;8.942;2023-06-01T06:12:51;11.48;;;4.50;;
69030;SDS011;56083;48.774;8.942;2023-06-01T06:15:17;11.25;;;3.65;;
69030;SDS011;56083;48.774;8.942;2023-06-01T06:17:42;9.55;;;3.72;;
69030;SDS011;56083;48.774;8.942;2023-06-01T06:20:08;11.38;;;3.90;;
69030;SDS011;56083;48.774;8.942;2023-06-01T06:22:35;8.35;;;3.78;;
69030;SDS011;56083;48.774;8.942;2023-06-01T06:25:01;15.57;;;3.95;;
69030;SDS011;56083;48.774;8.942;2023-06-01T06:27:27;9.85;;;3.15;;
69030;SDS011;56083;48.774;8.942;2023-06-01T06:29:53;11.52;;;3.15;;
69030;SDS011;56083;48.774;8.942;2023-06-01T06:32:19;11.30;;;3.45;;
69030;SDS011;56083;48.774;8.942;2023-06-01T06:34:45;9.43;;;3.15;;
69030;SDS011;56083;48.774;8.942;2023-06-01T06:37:11;7.35;;;2.85;;
69030;SDS011;56083;48.774;8.942;2023-06-01T06:39:37;9.52;;;3.42;;
69030;SDS011;56083;48.774;8.942;2023-06-01T06:42:03;13.05;;;3.28;;
69030;SDS011;56083;48.774;8.942;2023-06-01T06:44:30;7.85;;;2.92;;
69030;SDS011;56083;48.774;8.942;2023-06-01T06:46:57;11.32;;;3.00;;
69030;SDS011;56083;48.774;8.942;2023-06-01T06:49:24;12.20;;;3.28;;
69030;SDS011;56083;48.774;8.942;2023-06-01T06:51:50;10.88;;;3.15;;
69030;SDS011;56083;48.774;8.942;2023-06-01T06:54:15;13.82;;;3.50;;
69030;SDS011;56083;48.774;8.942;2023-06-01T06:56:41;10.60;;;3.28;;
69030;SDS011;56083;48.774;8.942;2023-06-01T06:59:07;6.03;;;3.10;;
69030;SDS011;56083;48.774;8.942;2023-06-01T07:01:33;6.95;;;3.10;;
69030;SDS011;56083;48.774;8.942;2023-06-01T07:04:03;7.65;;;3.25;;
69030;SDS011;56083;48.774;8.942;2023-06-01T07:06:29;11.82;;;3.53;;
69030;SDS011;56083;48.774;8.942;2023-06-01T07:08:55;11.05;;;3.40;;
69030;SDS011;56083;48.774;8.942;2023-06-01T07:11:21;11.55;;;3.40;;
69030;SDS011;56083;48.774;8.942;2023-06-01T07:13:48;11.73;;;3.13;;
69030;SDS011;56083;48.774;8.942;2023-06-01T07:16:14;13.98;;;3.63;;
69030;SDS011;56083;48.774;8.942;2023-06-01T07:18:39;9.88;;;3.75;;
69030;SDS011;56083;48.774;8.942;2023-06-01T07:21:05;12.55;;;3.05;;
69030;SDS011;56083;48.774;8.942;2023-06-01T07:23:31;8.68;;;3.15;;
69030;SDS011;56083;48.774;8.942;2023-06-01T07:25:57;8.50;;;3.28;;
69030;SDS011;56083;48.774;8.942;2023-06-01T07:28:22;13.65;;;3.30;;
69030;SDS011;56083;48.774;8.942;2023-06-01T07:30:50;13.63;;;3.22;;
69030;SDS011;56083;48.774;8.942;2023-06-01T07:33:16;11.82;;;3.22;;
69030;SDS011;56083;48.774;8.942;2023-06-01T07:35:43;12.32;;;3.03;;
69030;SDS011;56083;48.774;8.942;2023-06-01T07:38:08;13.35;;;3.28;;
69030;SDS011;56083;48.774;8.942;2023-06-01T07:40:35;15.30;;;3.33;;
69030;SDS011;56083;48.774;8.942;2023-06-01T07:43:01;17.10;;;3.83;;
69030;SDS011;56083;48.774;8.942;2023-06-01T07:45:27;17.20;;;3.17;;
69030;SDS011;56083;48.774;8.942;2023-06-01T07:47:52;12.38;;;3.38;;
69030;SDS011;56083;48.774;8.942;2023-06-01T07:50:18;17.05;;;3.72;;
69030;SDS011;56083;48.774;8.942;2023-06-01T07:52:44;13.15;;;3.33;;
69030;SDS011;56083;48.774;8.942;2023-06-01T07:55:10;14.50;;;3.50;;
69030;SDS011;56083;48.774;8.942;2023-06-01T07:57:36;20.05;;;3.75;;
69030;SDS011;56083;48.774;8.942;2023-06-01T08:00:02;15.25;;;3.20;;
69030;SDS011;56083;48.774;8.942;2023-06-01T08:02:33;12.93;;;4.03;;
69030;SDS011;56083;48.774;8.942;2023-06-01T08:04:58;11.65;;;3.42;;
69030;SDS011;56083;48.774;8.942;2023-06-01T08:07:24;10.20;;;2.85;;
69030;SDS011;56083;48.774;8.942;2023-06-01T08:09:53;13.52;;;3.60;;
69030;SDS011;56083;48.774;8.942;2023-06-01T08:12:18;9.93;;;3.80;;
69030;SDS011;56083;48.774;8.942;2023-06-01T08:14:44;15.10;;;3.80;;
69030;SDS011;56083;48.774;8.942;2023-06-01T08:17:10;14.88;;;3.30;;
69030;SDS011;56083;48.774;8.942;2023-06-01T08:19:36;10.27;;;3.42;;
69030;SDS011;56083;48.774;8.942;2023-06-01T08:22:02;12.48;;;3.88;;
69030;SDS011;56083;48.774;8.942;2023-06-01T08:24:31;11.10;;;3.67;;
69030;SDS011;56083;48.774;8.942;2023-06-01T08:26:57;9.00;;;3.60;;
69030;SDS011;56083;48.774;8.942;2023-06-01T08:29:23;17.98;;;3.83;;
69030;SDS011;56083;48.774;8.942;2023-06-01T08:31:48;15.95;;;3.50;;
69030;SDS011;56083;48.774;8.942;2023-06-01T08:34:14;17.13;;;3.85;;
69030;SDS011;56083;48.774;8.942;2023-06-01T08:36:40;11.50;;;3.35;;
69030;SDS011;56083;48.774;8.942;2023-06-01T08:39:21;10.45;;;3.70;;
69030;SDS011;56083;48.774;8.942;2023-06-01T08:44:36;13.30;;;3.53;;
69030;SDS011;56083;48.774;8.942;2023-06-01T08:47:04;15.30;;;3.40;;
69030;SDS011;56083;48.774;8.942;2023-06-01T08:49:32;19.30;;;4.20;;
69030;SDS011;56083;48.774;8.942;2023-06-01T08:52:02;18.88;;;4.20;;
69030;SDS011;56083;48.774;8.942;2023-06-01T08:54:33;9.23;;;3.47;;
69030;SDS011;56083;48.774;8.942;2023-06-01T08:57:00;10.65;;;3.75;;
69030;SDS011;56083;48.774;8.942;2023-06-01T08:59:28;13.07;;;3.90;;
69030;SDS011;56083;48.774;8.942;2023-06-01T09:01:55;15.05;;;3.95;;
69030;SDS011;56083;48.774;8.942;2023-06-01T09:04:22;13.50;;;3.80;;
69030;SDS011;56083;48.774;8.942;2023-06-01T09:06:47;14.30;;;4.32;;
69030;SDS011;56083;48.774;8.942;2023-06-01T09:09:13;9.80;;;3.50;;
69030;SDS011;56083;48.774;8.942;2023-06-01T09:11:39;15.95;;;4.00;;
69030;SDS011;56083;48.774;8.942;2023-06-01T09:14:23;14.82;;;4.43;;
69030;SDS011;56083;48.774;8.942;2023-06-01T09:16:50;10.90;;;3.90;;
69030;SDS011;56083;48.774;8.942;2023-06-01T09:19:16;9.77;;;3.80;;
69030;SDS011;56083;48.774;8.942;2023-06-01T09:21:58;13.52;;;3.92;;
69030;SDS011;56083;48.774;8.942;2023-06-01T09:24:24;15.40;;;4.32;;
69030;SDS011;56083;48.774;8.942;2023-06-01T09:26:51;18.52;;;4.45;;
69030;SDS011;56083;48.774;8.942;2023-06-01T09:29:25;11.82;;;3.90;;
69030;SDS011;56083;48.774;8.942;2023-06-01T09:31:51;13.15;;;4.50;;
69030;SDS011;56083;48.774;8.942;2023-06-01T09:34:18;16.80;;;4.40;;
69030;SDS011;56083;48.774;8.942;2023-06-01T09:36:48;15.68;;;4.20;;
69030;SDS011;56083;48.774;8.942;2023-06-01T09:39:16;10.43;;;3.78;;
69030;SDS011;56083;48.774;8.942;2023-06-01T09:44:13;16.38;;;4.38;;
69030;SDS011;56083;48.774;8.942;2023-06-01T09:46:49;8.55;;;4.07;;
69030;SDS011;56083;48.774;8.942;2023-06-01T09:52:07;13.27;;;3.63;;
69030;SDS011;56083;48.774;8.942;2023-06-01T09:54:34;10.90;;;4.00;;
69030;SDS011;56083;48.774;8.942;2023-06-01T09:57:06;13.98;;;4.13;;
69030;SDS011;56083;48.774;8.942;2023-06-01T09:59:43;13.82;;;4.35;;
69030;SDS011;56083;48.774;8.942;2023-06-01T10:02:17;13.10;;;4.32;;
69030;SDS011;56083;48.774;8.942;2023-06-01T10:04:48;8.15;;;3.97;;
69030;SDS011;56083;48.774;8.942;2023-06-01T10:07:14;11.52;;;4.32;;
69030;SDS011;56083;48.774;8.942;2023-06-01T10:09:42;11.93;;;4.20;;
69030;SDS011;56083;48.774;8.942;2023-06-01T10:12:10;13.88;;;4.63;;
69030;SDS011;56083;48.774;8.942;2023-06-01T10:14:36;11.68;;;4.07;;
69030;SDS011;56083;48.774;8.942;2023-06-01T10:17:05;13.15;;;4.13;;
69030;SDS011;56083;48.774;8.942;2023-06-01T10:19:32;12.68;;;3.97;;
69030;SDS011;56083;48.774;8.942;2023-06-01T10:22:00;13.35;;;4.32;;
69030;SDS011;56083;48.774;8.942;2023-06-01T10:24:28;10.93;;;4.43;;
69030;SDS011;56083;48.774;8.942;2023-06-01T10:29:39;11.75;;;4.32;;
69030;SDS011;56083;48.774;8.942;2023-06-01T10:32:26;12.73;;;4.57;;
69030;SDS011;56083;48.774;8.942;2023-06-01T10:40:39;11.18;;;4.47;;
69030;SDS011;56083;48.774;8.942;2023-06-01T10:43:06;12.43;;;4.13;;
69030;SDS011;56083;48.774;8.942;2023-06-01T10:47:59;6.40;;;3.58;;
69030;SDS011;56083;48.774;8.942;2023-06-01T10:50:26;7.38;;;4.13;;
69030;SDS011;56083;48.774;8.942;2023-06-01T10:52:52;11.48;;;4.00;;
69030;SDS011;56083;48.774;8.942;2023-06-01T10:55:20;9.48;;;4.03;;
69030;SDS011;56083;48.774;8.942;2023-06-01T10:57:46;8.90;;;3.83;;
69030;SDS011;56083;48.774;8.942;2023-06-01T11:02:42;9.98;;;3.92;;
69030;SDS011;56083;48.774;8.942;2023-06-01T11:05:39;9.32;;;3.80;;
69030;SDS011;56083;48.774;8.942;2023-06-01T11:13:16;11.13;;;4.10;;
69030;SDS011;56083;48.774;8.942;2023-06-01T11:18:52;10.52;;;3.90;;
69030;SDS011;56083;48.774;8.942;2023-06-01T11:23:56;13.45;;;4.18;;
69030;SDS011;56083;48.774;8.942;2023-06-01T11:26:24;7.05;;;3.72;;
69030;SDS011;56083;48.774;8.942;2023-06-01T11:29:10;7.43;;;3.90;;
69030;SDS011;56083;48.774;8.942;2023-06-01T11:31:45;8.73;;;3.60;;
69030;SDS011;56083;48.774;8.942;2023-06-01T11:34:42;8.52;;;3.83;;
69030;SDS011;56083;48.774;8.942;2023-06-01T11:37:17;6.15;;;3.72;;
69030;SDS011;56083;48.774;8.942;2023-06-01T11:39:44;6.85;;;3.80;;
69030;SDS011;56083;48.774;8.942;2023-06-01T11:42:14;8.88;;;3.75;;
69030;SDS011;56083;48.774;8.942;2023-06-01T11:44:42;9.38;;;3.70;;
69030;SDS011;56083;48.774;8.942;2023-06-01T11:47:10;13.35;;;4.30;;
69030;SDS011;56083;48.774;8.942;2023-06-01T11:49:40;16.17;;;3.90;;
69030;SDS011;56083;48.774;8.942;2023-06-01T11:52:12;6.78;;;3.92;;
69030;SDS011;56083;48.774;8.942;2023-06-01T11:54:37;10.35;;;4.32;;
69030;SDS011;56083;48.774;8.942;2023-06-01T11:57:03;12.45;;;4.50;;
69030;SDS011;56083;48.774;8.942;2023-06-01T12:02:22;4.80;;;3.35;;
69030;SDS011;56083;48.774;8.942;2023-06-01T12:04:57;8.13;;;4.15;;
69030;SDS011;56083;48.774;8.942;2023-06-01T12:07:23;7.85;;;3.83;;
69030;SDS011;56083;48.774;8.942;2023-06-01T12:09:52;10.38;;;4.00;;
69030;SDS011;56083;48.774;8.942;2023-06-01T12:12:22;11.05;;;3.90;;
69030;SDS011;56083;48.774;8.942;2023-06-01T12:14:49;9.77;;;4.28;;
69030;SDS011;56083;48.774;8.942;2023-06-01T12:17:16;7.15;;;3.90;;
69030;SDS011;56083;48.774;8.942;2023-06-01T12:19:49;13.25;;;3.65;;
69030;SDS011;56083;48.774;8.942;2023-06-01T12:22:15;10.52;;;3.92;;
69030;SDS011;56083;48.774;8.942;2023-06-01T12:24:42;6.72;;;3.90;;
69030;SDS011;56083;48.774;8.942;2023-06-01T12:27:17;9.50;;;4.13;;
69030;SDS011;56083;48.774;8.942;2023-06-01T12:29:46;9.15;;;4.05;;
69030;SDS011;56083;48.774;8.942;2023-06-01T12:32:15;6.28;;;3.85;;
69030;SDS011;56083;48.774;8.942;2023-06-01T12:34:43;8.10;;;3.70;;
69030;SDS011;56083;48.774;8.942;2023-06-01T12:39:39;11.82;;;4.05;;
69030;SDS011;56083;48.774;8.942;2023-06-01T12:42:06;9.93;;;4.00;;
69030;SDS011;56083;48.774;8.942;2023-06-01T12:44:32;7.25;;;4.15;;
69030;SDS011;56083;48.774;8.942;2023-06-01T12:46:58;8.63;;;4.00;;
69030;SDS011;56083;48.774;8.942;2023-06-01T12:49:25;8.18;;;3.63;;
69030;SDS011;56083;48.774;8.942;2023-06-01T12:51:51;11.60;;;4.40;;
69030;SDS011;56083;48.774;8.942;2023-06-01T12:54:17;10.70;;;3.92;;
69030;SDS011;56083;48.774;8.942;2023-06-01T12:56:43;9.57;;;3.85;;
69030;SDS011;56083;48.774;8.942;2023-06-01T12:59:09;11.85;;;3.78;;
69030;SDS011;56083;48.774;8.942;2023-06-01T13:01:35;7.70;;;3.67;;
69030;SDS011;56083;48.774;8.942;2023-06-01T13:04:01;5.88;;;3.95;;
69030;SDS011;56083;48.774;8.942;2023-06-01T13:06:30;9.77;;;4.15;;
69030;SDS011;56083;48.774;8.942;2023-06-01T13:08:55;10.73;;;3.72;;
69030;SDS011;56083;48.774;8.942;2023-06-01T13:11:22;12.93;;;3.70;;
69030;SDS011;56083;48.774;8.942;2023-06-01T13:13:50;7.95;;;4.00;;
69030;SDS011;56083;48.774;8.942;2023-06-01T13:16:16;9.48;;;3.92;;
69030;SDS011;56083;48.774;8.942;2023-06-01T13:18:42;13.43;;;3.88;;
69030;SDS011;56083;48.774;8.942;2023-06-01T13:21:09;7.15;;;3.72;;
69030;SDS011;56083;48.774;8.942;2023-06-01T13:23:35;18.58;;;3.90;;
69030;SDS011;56083;48.774;8.942;2023-06-01T13:26:00;8.15;;;3.67;;
69030;SDS011;56083;48.774;8.942;2023-06-01T13:28:26;5.80;;;3.53;;
69030;SDS011;56083;48.774;8.942;2023-06-01T13:30:52;7.70;;;3.63;;
69030;SDS011;56083;48.774;8.942;2023-06-01T13:33:20;7.90;;;3.67;;
69030;SDS011;56083;48.774;8.942;2023-06-01T13:35:45;11.07;;;3.40;;
69030;SDS011;56083;48.774;8.942;2023-06-01T13:38:12;9.23;;;3.80;;
69030;SDS011;56083;48.774;8.942;2023-06-01T13:40:38;6.85;;;3.72;;
69030;SDS011;56083;48.774;8.942;2023-06-01T13:43:04;11.07;;;3.72;;
69030;SDS011;56083;48.774;8.942;2023-06-01T13:45:29;9.43;;;3.60;;
69030;SDS011;56083;48.774;8.942;2023-06-01T13:47:55;5.38;;;3.60;;
69030;SDS011;56083;48.774;8.942;2023-06-01T13:50:23;5.22;;;3.50;;
69030;SDS011;56083;48.774;8.942;2023-06-01T13:52:49;12.93;;;3.72;;
69030;SDS011;56083;48.774;8.942;2023-06-01T13:55:15;8.38;;;3.55;;
69030;SDS011;56083;48.774;8.942;2023-06-01T13:57:41;5.28;;;3.35;;
69030;SDS011;56083;48.774;8.942;2023-06-01T14:00:07;6.97;;;3.58;;
69030;SDS011;56083;48.774;8.942;2023-06-01T14:02:36;8.52;;;3.55;;
69030;SDS011;56083;48.774;8.942;2023-06-01T14:05:01;7.78;;;3.13;;
69030;SDS011;56083;48.774;8.942;2023-06-01T14:07:27;11.82;;;3.45;;
69030;SDS011;56083;48.774;8.942;2023-06-01T14:09:53;9.27;;;3.45;;
69030;SDS011;56083;48.774;8.942;2023-06-01T14:12:18;5.97;;;3.45;;
69030;SDS011;56083;48.774;8.942;2023-06-01T14:14:44;6.75;;;3.83;;
69030;SDS011;56083;48.774;8.942;2023-06-01T14:17:10;5.35;;;3.47;;
69030;SDS011;56083;48.774;8.942;2023-06-01T14:19:35;6.93;;;3.17;;
69030;SDS011;56083;48.774;8.942;2023-06-01T14:22:01;7.95;;;3.38;;
69030;SDS011;56083;48.774;8.942;2023-06-01T14:24:27;7.70;;;3.08;;
69030;SDS011;56083;48.774;8.942;2023-06-01T14:26:52;10.18;;;2.90;;
69030;SDS011;56083;48.774;8.942;2023-06-01T14:29:18;6.32;;;3.03;;
69030;SDS011;56083;48.774;8.942;2023-06-01T14:31:45;6.90;;;3.00;;
69030;SDS011;56083;48.774;8.942;2023-06-01T14:34:10;4.93;;;2.90;;
69030;SDS011;56083;48.774;8.942;2023-06-01T14:36:36;5.97;;;3.15;;
69030;SDS011;56083;48.774;8.942;2023-06-01T14:39:02;11.88;;;2.97;;
69030;SDS011;56083;48.774;8.942;2023-06-01T14:41:28;4.55;;;2.97;;
69030;SDS011;56083;48.774;8.942;2023-06-01T14:43:54;8.00;;;2.80;;
69030;SDS011;56083;48.774;8.942;2023-06-01T14:46:19;10.35;;;3.00;;
69030;SDS011;56083;48.774;8.942;2023-06-01T14:48:46;5.30;;;2.70;;
69030;SDS011;56083;48.774;8.942;2023-06-01T14:51:12;8.48;;;3.05;;
69030;SDS011;56083;48.774;8.942;2023-06-01T14:53:37;6.43;;;2.70;;
69030;SDS011;56083;48.774;8.942;2023-06-01T14:56:04;4.75;;;2.58;;
69030;SDS011;56083;48.774;8.942;2023-06-01T14:58:31;6.45;;;2.60;;
69030;SDS011;56083;48.774;8.942;2023-06-01T15:00:57;4.97;;;2.53;;
69030;SDS011;56083;48.774;8.942;2023-06-01T15:03:23;6.25;;;2.70;;
69030;SDS011;56083;48.774;8.942;2023-06-01T15:05:49;6.15;;;2.50;;
69030;SDS011;56083;48.774;8.942;2023-06-01T15:08:15;3.63;;;2.20;;
69030;SDS011;56083;48.774;8.942;2023-06-01T15:10:41;8.10;;;2.20;;
69030;SDS011;56083;48.774;8.942;2023-06-01T15:13:06;6.45;;;2.42;;
69030;SDS011;56083;48.774;8.942;2023-06-01T15:15:32;7.53;;;2.20;;
69030;SDS011;56083;48.774;8.942;2023-06-01T15:17:57;5.93;;;2.35;;
69030;SDS011;56083;48.774;8.942;2023-06-01T15:20:23;7.28;;;2.08;;
69030;SDS011;56083;48.774;8.942;2023-06-01T15:22:49;5.22;;;2.10;;
69030;SDS011;56083;48.774;8.942;2023-06-01T15:25:14;9.60;;;2.30;;
69030;SDS011;56083;48.774;8.942;2023-06-01T15:27:40;5.53;;;1.95;;
69030;SDS011;56083;48.774;8.942;2023-06-01T15:30:06;6.57;;;1.90;;
69030;SDS011;56083;48.774;8.942;2023-06-01T15:32:33;4.75;;;2.15;;